Time;durP1;ratioP1;P1;durP2;ratioP2;P2;SDS_P1;SDS_P2;PMS_P1;PMS_P2;Temp;Humidity;BMP_temperature;BMP_pressure;BME280_temperature;BME280_humidity;BME280_pressure;Samples;Min_cycle;Max_cycle;Signal;HPM_P1;HPM_P2
2024/04/09 00:00:30;;;;;;;5.60;1.75;;;;;;;16.67;100.00;100278.41;5666932;26;20017;-72
2024/04/09 00:03:01;;;;;;;7.15;2.28;;;;;;;16.70;100.00;100272.53;5664776;26;20009;-72
2024/04/09 00:05:32;;;;;;;5.15;1.70;;;;;;;16.66;100.00;100274.84;5671566;26;20002;-72
2024/04/09 00:08:04;;;;;;;8.80;2.03;;;;;;;16.63;100.00;100286.16;5659367;26;20009;-72
2024/04/09 00:10:36;;;;;;;11.23;1.80;;;;;;;16.62;100.00;100297.19;5668476;26;20013;-72
2024/04/09 00:13:06;;;;;;;6.13;1.60;;;;;;;16.53;100.00;100311.00;5671749;26;20017;-72
2024/04/09 00:15:40;;;;;;;8.52;2.22;;;;;;;16.46;100.00;100314.78;5667993;26;20336;-72
2024/04/09 00:18:11;;;;;;;14.02;1.75;;;;;;;16.43;100.00;100328.78;5664641;26;20006;-72
2024/04/09 00:20:43;;;;;;;4.60;1.52;;;;;;;16.38;100.00;100324.00;5655936;26;20382;-72
2024/04/09 00:23:16;;;;;;;6.03;2.00;;;;;;;16.40;100.00;100323.78;5668042;26;19994;-72
2024/04/09 00:25:46;;;;;;;7.03;2.05;;;;;;;16.45;100.00;100340.19;5671902;26;20013;-72
2024/04/09 00:28:17;;;;;;;7.13;1.80;;;;;;;16.43;100.00;100342.31;5665876;26;20002;-72
2024/04/09 00:30:47;;;;;;;4.95;1.60;;;;;;;16.44;100.00;100349.38;5667749;26;19999;-72
2024/04/09 00:33:18;;;;;;;7.68;1.90;;;;;;;16.46;100.00;100377.88;5664475;26;20448;-72
2024/04/09 00:35:50;;;;;;;6.78;1.77;;;;;;;16.45;100.00;100391.66;5667314;26;20326;-72
2024/04/09 00:38:23;;;;;;;6.60;1.75;;;;;;;16.47;100.00;100384.16;5674268;26;21545;-72
2024/04/09 00:40:53;;;;;;;7.32;1.80;;;;;;;16.50;100.00;100381.00;5671233;26;20397;-72
2024/04/09 00:43:24;;;;;;;8.43;1.75;;;;;;;16.48;100.00;100372.28;5670737;26;20005;-72
2024/04/09 00:45:55;;;;;;;10.65;2.30;;;;;;;16.39;100.00;100377.09;5659336;26;20558;-72
2024/04/09 00:48:26;;;;;;;9.90;1.83;;;;;;;16.34;100.00;100373.38;5670413;26;20009;-72
2024/04/09 00:50:56;;;;;;;9.80;2.10;;;;;;;16.35;100.00;100358.78;5668906;26;20074;-72
2024/04/09 00:53:28;;;;;;;7.93;2.92;;;;;;;16.35;100.00;100335.25;5669985;26;20013;-72
2024/04/09 00:55:58;;;;;;;10.25;2.22;;;;;;;16.33;100.00;100323.00;5668945;26;20011;-72
2024/04/09 00:58:29;;;;;;;11.77;2.67;;;;;;;16.33;100.00;100295.94;5659907;26;20349;-72
2024/04/09 01:01:00;;;;;;;11.63;2.13;;;;;;;16.37;100.00;100224.91;5667796;26;19994;-72
2024/04/09 01:03:31;;;;;;;11.88;2.38;;;;;;;16.41;100.00;100204.44;5662017;26;19998;-72
2024/04/09 01:06:02;;;;;;;15.93;2.65;;;;;;;16.41;100.00;100264.00;5669612;26;20005;-72
2024/04/09 01:08:33;;;;;;;7.32;1.92;;;;;;;16.30;100.00;100352.16;5664933;26;20010;-72
2024/04/09 01:11:03;;;;;;;7.85;2.47;;;;;;;16.24;100.00;100374.66;5660606;26;19998;-72
2024/04/09 01:13:36;;;;;;;13.00;2.50;;;;;;;16.27;100.00;100362.59;5670767;26;20013;-72
2024/04/09 01:16:07;;;;;;;7.03;1.90;;;;;;;16.31;100.00;100352.97;5662358;26;19997;-72
2024/04/09 01:18:38;;;;;;;7.68;2.40;;;;;;;16.31;100.00;100361.94;5668835;26;20002;-72
2024/04/09 01:21:10;;;;;;;7.10;2.10;;;;;;;16.31;100.00;100371.91;5661909;26;19994;-72
2024/04/09 01:23:40;;;;;;;8.95;2.42;;;;;;;16.30;100.00;100390.03;5667972;26;20034;-72
2024/04/09 01:26:14;;;;;;;12.93;2.53;;;;;;;16.30;100.00;100389.22;5672927;26;20091;-72
2024/04/09 01:28:46;;;;;;;10.10;2.75;;;;;;;16.32;100.00;100397.97;5663851;26;19990;-73
2024/04/09 01:31:16;;;;;;;14.50;3.30;;;;;;;16.29;100.00;100418.16;5665204;26;20020;-72
2024/04/09 01:33:47;;;;;;;10.38;3.65;;;;;;;16.39;100.00;100436.66;5671466;26;19994;-72
2024/04/09 01:36:18;;;;;;;7.68;2.75;;;;;;;16.33;100.00;100448.34;5666193;26;20369;-72
2024/04/09 01:38:49;;;;;;;11.70;3.13;;;;;;;16.27;100.00;100466.28;5666180;26;20705;-72
2024/04/09 01:41:19;;;;;;;8.45;3.05;;;;;;;16.23;100.00;100478.56;5663798;26;20010;-72
2024/04/09 01:43:50;;;;;;;8.82;2.30;;;;;;;16.23;100.00;100477.72;5667432;26;20014;-72
2024/04/09 01:46:22;;;;;;;5.88;2.13;;;;;;;16.15;100.00;100489.59;5671253;26;20091;-72
2024/04/09 01:48:52;;;;;;;6.88;2.03;;;;;;;16.17;100.00;100478.59;5663990;26;20009;-72
2024/04/09 01:51:24;;;;;;;5.28;1.90;;;;;;;16.17;100.00;100476.72;5669087;26;20090;-72
2024/04/09 01:53:54;;;;;;;6.95;2.10;;;;;;;16.12;100.00;100470.28;5659036;26;20011;-72
2024/04/09 01:56:25;;;;;;;6.65;1.80;;;;;;;16.04;100.00;100468.59;5668921;26;20021;-72
2024/04/09 01:58:55;;;;;;;7.95;2.40;;;;;;;15.88;100.00;100458.25;5650103;26;20017;-72
2024/04/09 02:01:27;;;;;;;11.05;2.17;;;;;;;15.86;100.00;100452.19;5665990;26;20013;-72
2024/04/09 02:04:08;;;;;;;4.03;1.98;;;;;;;15.82;100.00;100451.78;5666838;26;20066;-72
2024/04/09 02:06:42;;;;;;;3.50;1.88;;;;;;;15.82;100.00;100437.44;5673044;26;20340;-72
2024/04/09 02:09:13;;;;;;;5.35;1.90;;;;;;;15.81;100.00;100414.94;5670553;26;20440;-72
2024/04/09 02:11:43;;;;;;;10.40;2.20;;;;;;;15.79;100.00;100412.47;5670570;26;20351;-72
2024/04/09 02:14:14;;;;;;;4.95;1.90;;;;;;;15.79;100.00;100419.75;5669010;26;20328;-72
2024/04/09 02:16:51;;;;;;;8.85;2.45;;;;;;;15.75;100.00;100430.16;5667303;26;19994;-72
2024/04/09 02:19:22;;;;;;;7.90;2.28;;;;;;;15.75;100.00;100451.78;5666282;26;20398;-72
2024/04/09 02:21:53;;;;;;;4.88;2.10;;;;;;;15.74;100.00;100465.53;5675011;26;20444;-72
2024/04/09 02:24:27;;;;;;;5.20;2.10;;;;;;;15.66;100.00;100466.59;5666783;26;19998;-72
2024/04/09 02:26:58;;;;;;;8.77;2.00;;;;;;;15.69;100.00;100470.72;5674338;26;20006;-72
2024/04/09 02:29:30;;;;;;;12.88;2.60;;;;;;;15.66;100.00;100463.03;5660037;26;20001;-72
2024/04/09 02:32:01;;;;;;;8.25;2.10;;;;;;;15.64;100.00;100441.59;5670297;26;19998;-72
2024/04/09 02:34:35;;;;;;;7.38;2.40;;;;;;;15.62;100.00;100432.84;5674728;26;20017;-72
2024/04/09 02:37:06;;;;;;;7.85;3.58;;;;;;;15.61;100.00;100414.94;5665182;26;20463;-72
2024/04/09 02:39:37;;;;;;;8.50;2.35;;;;;;;15.63;100.00;100410.22;5674750;26;20002;-72
2024/04/09 02:42:13;;;;;;;6.60;2.33;;;;;;;15.63;100.00;100390.41;5662891;26;20003;-72
2024/04/09 02:44:44;;;;;;;8.27;2.25;;;;;;;15.64;100.00;100397.53;5671189;26;20017;-72
2024/04/09 02:47:15;;;;;;;3.97;2.22;;;;;;;15.60;100.00;100425.97;5674201;26;20451;-72
2024/04/09 02:49:45;;;;;;;5.68;2.55;;;;;;;15.51;100.00;100446.97;5668047;26;20009;-72
2024/04/09 02:52:17;;;;;;;7.38;2.70;;;;;;;15.53;100.00;100456.56;5668189;26;20067;-72
2024/04/09 02:54:47;;;;;;;5.35;2.67;;;;;;;15.54;100.00;100449.28;5676032;26;20482;-72
2024/04/09 02:57:18;;;;;;;6.57;2.90;;;;;;;15.54;100.00;100469.03;5660437;26;19998;-72
2024/04/09 02:59:52;;;;;;;7.38;3.00;;;;;;;15.51;100.00;100483.00;5664102;26;20010;-72
2024/04/09 03:02:23;;;;;;;9.60;3.20;;;;;;;15.47;100.00;100479.03;5675705;26;20008;-72
2024/04/09 03:04:53;;;;;;;8.35;3.10;;;;;;;15.45;100.00;100475.69;5666608;26;20224;-72
2024/04/09 03:07:24;;;;;;;9.95;3.45;;;;;;;15.42;100.00;100472.59;5675116;26;20070;-72
2024/04/09 03:09:54;;;;;;;10.13;4.00;;;;;;;15.41;100.00;100473.59;5668223;26;20333;-72
2024/04/09 03:12:25;;;;;;;9.80;4.47;;;;;;;15.39;100.00;100476.50;5671832;26;19995;-72
2024/04/09 03:14:56;;;;;;;12.10;4.70;;;;;;;15.40;100.00;100478.16;5666593;26;20326;-72
2024/04/09 03:17:26;;;;;;;8.52;5.30;;;;;;;15.42;100.00;100484.22;5664617;26;20047;-72
2024/04/09 03:19:57;;;;;;;14.70;6.35;;;;;;;15.39;100.00;100475.69;5669825;26;20061;-72
2024/04/09 03:22:27;;;;;;;12.70;6.03;;;;;;;15.41;100.00;100484.41;5671502;26;20462;-72
2024/04/09 03:24:58;;;;;;;11.20;6.07;;;;;;;15.21;100.00;100496.06;5667919;26;19994;-72
2024/04/09 03:27:28;;;;;;;11.25;6.20;;;;;;;15.22;100.00;100502.28;5671923;26;20042;-73
2024/04/09 03:29:59;;;;;;;9.10;5.68;;;;;;;15.16;100.00;100509.34;5667574;26;20026;-72
2024/04/09 03:32:30;;;;;;;8.65;4.35;;;;;;;15.09;100.00;100513.88;5668104;26;20444;-72
2024/04/09 03:35:01;;;;;;;6.78;3.10;;;;;;;15.12;100.00;100531.56;5675291;26;20002;-72
2024/04/09 03:37:31;;;;;;;6.30;2.03;;;;;;;15.03;100.00;100536.31;5663534;26;20066;-72
2024/04/09 03:40:02;;;;;;;4.68;2.10;;;;;;;15.11;100.00;100522.63;5671837;26;20079;-72
2024/04/09 03:42:33;;;;;;;6.63;2.00;;;;;;;15.08;100.00;100544.63;5669391;26;19994;-72
2024/04/09 03:45:08;;;;;;;7.60;2.80;;;;;;;15.12;100.00;100551.31;5669857;26;20078;-72
2024/04/09 03:47:39;;;;;;;4.07;1.75;;;;;;;15.08;100.00;100562.72;5673121;26;20021;-72
2024/04/09 03:50:10;;;;;;;5.55;1.75;;;;;;;15.05;100.00;100563.94;5662244;26;19998;-72
2024/04/09 03:52:41;;;;;;;7.65;1.75;;;;;;;14.99;100.00;100571.00;5671655;26;20008;-72
2024/04/09 03:55:11;;;;;;;3.55;1.38;;;;;;;15.02;100.00;100589.50;5674478;26;20006;-72
2024/04/09 03:57:42;;;;;;;4.22;1.55;;;;;;;14.99;100.00;100605.28;5661272;26;19998;-72
2024/04/09 04:00:13;;;;;;;4.90;1.55;;;;;;;14.81;100.00;100599.56;5659536;26;19994;-72
2024/04/09 04:02:43;;;;;;;1.80;1.20;;;;;;;14.61;100.00;100603.00;5667611;26;20002;-72
2024/04/09 04:05:14;;;;;;;6.82;1.42;;;;;;;14.51;100.00;100621.44;5655377;26;19998;-71
2024/04/09 04:07:44;;;;;;;4.75;1.30;;;;;;;14.28;100.00;100615.41;5663623;26;19995;-72
2024/04/09 04:10:15;;;;;;;5.40;1.63;;;;;;;14.30;100.00;100630.34;5661241;26;20006;-72
2024/04/09 04:12:46;;;;;;;4.15;1.58;;;;;;;14.15;100.00;100648.50;5666010;26;20010;-72
2024/04/09 04:15:16;;;;;;;8.88;1.65;;;;;;;14.00;100.00;100640.47;5664837;26;19998;-72
2024/04/09 04:17:47;;;;;;;3.97;1.27;;;;;;;13.91;100.00;100642.50;5663003;26;20026;-72
2024/04/09 04:20:17;;;;;;;5.57;1.10;;;;;;;13.83;100.00;100650.69;5675086;26;20537;-72
2024/04/09 04:22:48;;;;;;;4.50;1.02;;;;;;;13.81;100.00;100633.06;5667173;26;19999;-72
2024/04/09 04:25:18;;;;;;;5.50;1.30;;;;;;;13.61;100.00;100657.94;5675038;26;19990;-72
2024/04/09 04:27:48;;;;;;;6.78;1.35;;;;;;;13.72;100.00;100662.84;5671002;26;20074;-72
2024/04/09 04:30:19;;;;;;;5.80;1.48;;;;;;;13.78;100.00;100655.00;5668566;26;19998;-72
2024/04/09 04:32:49;;;;;;;10.68;1.38;;;;;;;13.81;100.00;100660.03;5666964;26;19998;-72
2024/04/09 04:35:20;;;;;;;10.63;1.30;;;;;;;13.73;100.00;100658.28;5674395;26;19994;-73
2024/04/09 04:37:50;;;;;;;12.57;1.80;;;;;;;13.70;100.00;100656.81;5669182;26;20009;-72
2024/04/09 04:40:21;;;;;;;7.60;1.27;;;;;;;13.79;100.00;100637.78;5673794;26;20066;-72
2024/04/09 04:42:51;;;;;;;7.03;1.10;;;;;;;13.54;100.00;100635.47;5667333;26;19998;-72
2024/04/09 04:45:22;;;;;;;4.93;0.98;;;;;;;13.52;100.00;100644.78;5666035;26;20476;-72
2024/04/09 04:47:52;;;;;;;5.38;1.02;;;;;;;13.31;100.00;100659.88;5670649;26;20008;-72
2024/04/09 04:50:23;;;;;;;4.55;1.15;;;;;;;13.51;100.00;100670.91;5666717;26;20138;-72
2024/04/09 04:52:53;;;;;;;8.52;1.65;;;;;;;13.46;100.00;100663.38;5663528;26;20616;-72
2024/04/09 04:55:24;;;;;;;6.05;1.02;;;;;;;13.42;100.00;100683.63;5672977;26;19997;-72
2024/04/09 04:57:54;;;;;;;6.07;1.25;;;;;;;13.32;100.00;100672.31;5657434;26;20345;-73
2024/04/09 05:00:26;;;;;;;6.82;1.17;;;;;;;13.28;100.00;100671.03;5667490;26;19998;-72
2024/04/09 05:02:56;;;;;;;8.13;1.00;;;;;;;13.30;100.00;100681.59;5671526;26;20013;-72
2024/04/09 05:05:28;;;;;;;6.93;0.93;;;;;;;13.23;100.00;100680.69;5665295;26;20002;-73
2024/04/09 05:07:59;;;;;;;7.45;1.20;;;;;;;13.16;100.00;100683.28;5668712;26;20002;-72
2024/04/09 05:10:30;;;;;;;10.35;1.27;;;;;;;13.23;100.00;100684.22;5666339;26;20009;-73
2024/04/09 05:13:00;;;;;;;6.20;1.05;;;;;;;13.22;100.00;100679.84;5668231;26;19994;-72
2024/04/09 05:15:31;;;;;;;11.05;1.10;;;;;;;13.31;100.00;100683.28;5672560;26;20009;-72
2024/04/09 05:18:01;;;;;;;11.30;1.10;;;;;;;13.32;100.00;100683.09;5671323;26;20009;-73
2024/04/09 05:20:32;;;;;;;10.35;0.95;;;;;;;13.33;100.00;100694.72;5673664;26;19994;-74
2024/04/09 05:23:03;;;;;;;8.60;1.05;;;;;;;13.35;100.00;100684.56;5672579;26;19998;-74
2024/04/09 05:25:33;;;;;;;10.85;1.08;;;;;;;13.26;100.00;100700.03;5674001;26;20010;-74
2024/04/09 05:28:04;;;;;;;8.43;1.50;;;;;;;13.28;100.00;100691.75;5673516;26;20003;-73
2024/04/09 05:30:34;;;;;;;5.63;1.13;;;;;;;13.41;100.00;100678.44;5669773;26;20006;-72
2024/04/09 05:33:04;;;;;;;10.93;1.10;;;;;;;13.38;100.00;100685.03;5665452;26;20010;-72
2024/04/09 05:35:35;;;;;;;10.32;1.55;;;;;;;13.43;100.00;100673.69;5669791;26;20005;-72
2024/04/09 05:38:05;;;;;;;8.95;1.33;;;;;;;13.26;100.00;100688.41;5666471;26;20364;-73
2024/04/09 05:40:36;;;;;;;4.38;1.02;;;;;;;13.36;100.00;100668.22;5663640;26;19998;-72
2024/04/09 05:43:07;;;;;;;6.55;1.25;;;;;;;13.40;100.00;100663.28;5671279;26;19998;-72
2024/04/09 05:45:37;;;;;;;8.43;1.33;;;;;;;13.39;100.00;100677.78;5662544;26;20006;-73
2024/04/09 05:48:10;;;;;;;7.53;1.25;;;;;;;13.45;100.00;100666.25;5673351;26;20545;-73
2024/04/09 05:50:41;;;;;;;6.38;1.20;;;;;;;13.46;100.00;100684.94;5664993;26;20005;-72
2024/04/09 05:53:11;;;;;;;10.07;1.30;;;;;;;13.63;100.00;100682.84;5663865;26;20461;-73
2024/04/09 05:55:42;;;;;;;7.72;1.27;;;;;;;13.36;100.00;100692.47;5668199;26;19998;-73
2024/04/09 05:58:12;;;;;;;8.43;1.38;;;;;;;13.31;100.00;100702.16;5653829;26;20340;-73
2024/04/09 06:00:42;;;;;;;10.65;1.33;;;;;;;13.21;100.00;100705.97;5669168;26;19998;-72
2024/04/09 06:03:13;;;;;;;5.57;1.17;;;;;;;13.34;100.00;100702.59;5665762;26;19995;-72
2024/04/09 06:05:43;;;;;;;8.07;1.17;;;;;;;13.46;100.00;100713.75;5667332;26;19998;-73
2024/04/09 06:08:15;;;;;;;5.65;0.88;;;;;;;13.44;100.00;100707.69;5668923;26;19999;-73
2024/04/09 06:10:46;;;;;;;6.28;1.00;;;;;;;13.39;100.00;100715.50;5672483;26;20082;-72
2024/04/09 06:13:16;;;;;;;3.70;0.95;;;;;;;13.45;100.00;100707.53;5662075;26;20006;-73
2024/04/09 06:15:47;;;;;;;9.07;1.48;;;;;;;13.39;100.00;100702.03;5669249;26;20002;-72
2024/04/09 06:18:17;;;;;;;10.52;1.38;;;;;;;13.43;100.00;100709.56;5672578;26;20005;-73
2024/04/09 06:20:48;;;;;;;9.50;1.40;;;;;;;13.38;100.00;100706.59;5658650;26;20010;-73
2024/04/09 06:23:20;;;;;;;11.43;2.75;;;;;;;13.36;100.00;100700.56;5664495;26;20069;-72
2024/04/09 06:25:54;;;;;;;9.25;1.42;;;;;;;13.17;100.00;100712.72;5655643;26;19999;-72
2024/04/09 06:28:26;;;;;;;8.07;1.42;;;;;;;13.04;100.00;100733.22;5667361;26;20002;-72
2024/04/09 06:30:57;;;;;;;5.03;1.48;;;;;;;13.09;100.00;100737.03;5664797;26;20002;-73
2024/04/09 06:33:28;;;;;;;7.95;1.60;;;;;;;13.21;100.00;100743.69;5666789;26;20528;-72
2024/04/09 06:35:58;;;;;;;6.95;1.55;;;;;;;13.41;100.00;100749.34;5668499;26;19994;-72
2024/04/09 06:38:30;;;;;;;8.77;1.13;;;;;;;13.60;100.00;100755.16;5661808;26;19998;-72
2024/04/09 06:41:01;;;;;;;8.13;1.25;;;;;;;13.72;100.00;100764.44;5664844;26;20016;-73
2024/04/09 06:43:32;;;;;;;11.45;1.20;;;;;;;13.83;100.00;100777.44;5669227;26;19998;-73
2024/04/09 06:46:02;;;;;;;6.10;1.63;;;;;;;13.31;100.00;100764.13;5666595;26;20555;-73
2024/04/09 06:48:33;;;;;;;7.68;1.20;;;;;;;13.17;100.00;100785.44;5667885;26;20003;-74
2024/04/09 06:51:04;;;;;;;11.30;1.92;;;;;;;13.18;100.00;100784.41;5661704;26;20006;-74
2024/04/09 06:53:34;;;;;;;11.77;1.65;;;;;;;12.94;100.00;100788.19;5660994;26;20083;-74
2024/04/09 06:56:05;;;;;;;8.43;1.60;;;;;;;12.87;100.00;100795.31;5666885;26;20009;-75
2024/04/09 06:58:37;;;;;;;9.68;2.03;;;;;;;12.77;100.00;100797.44;5653526;26;20007;-74
2024/04/09 07:01:07;;;;;;;9.52;1.40;;;;;;;12.68;100.00;100806.59;5667438;26;20442;-73
2024/04/09 07:03:38;;;;;;;9.10;1.20;;;;;;;12.47;100.00;100807.28;5668199;26;20008;-72
2024/04/09 07:06:08;;;;;;;9.48;2.42;;;;;;;12.64;100.00;100807.97;5666039;26;20002;-72
2024/04/09 07:08:39;;;;;;;11.38;1.30;;;;;;;12.93;100.00;100804.53;5668747;26;20723;-73
2024/04/09 07:11:09;;;;;;;6.53;0.90;;;;;;;13.08;100.00;100816.16;5669549;26;19994;-72
2024/04/09 07:13:40;;;;;;;8.73;1.23;;;;;;;13.25;100.00;100822.25;5669162;26;20010;-72
2024/04/09 07:16:10;;;;;;;10.63;1.52;;;;;;;12.96;100.00;100823.84;5664479;26;19995;-72
2024/04/09 07:18:41;;;;;;;6.50;1.20;;;;;;;12.69;100.00;100825.25;5664649;26;19998;-73
2024/04/09 07:21:11;;;;;;;8.98;1.27;;;;;;;12.57;100.00;100823.19;5667297;26;19995;-72
2024/04/09 07:23:41;;;;;;;5.90;0.95;;;;;;;12.61;100.00;100817.25;5672154;26;20068;-72
2024/04/09 07:26:12;;;;;;;11.75;1.63;;;;;;;12.46;100.00;100831.69;5661359;26;20039;-73
2024/04/09 07:28:42;;;;;;;5.10;0.82;;;;;;;12.37;100.00;100826.34;5667106;26;20038;-75
2024/04/09 07:31:14;;;;;;;5.30;1.50;;;;;;;12.52;100.00;100830.97;5673490;26;20071;-72
2024/04/09 07:33:51;;;;;;;7.30;1.30;;;;;;;12.66;100.00;100839.09;5673219;26;20026;-72
2024/04/09 07:36:22;;;;;;;6.63;0.95;;;;;;;12.42;100.00;100839.25;5662958;26;20843;-71
2024/04/09 07:38:53;;;;;;;8.10;0.93;;;;;;;12.58;100.00;100827.53;5658868;26;20006;-71
2024/04/09 07:41:25;;;;;;;8.85;1.77;;;;;;;12.69;100.00;100829.81;5667707;26;20013;-72
2024/04/09 07:43:55;;;;;;;6.90;1.27;;;;;;;12.64;100.00;100842.97;5670354;26;20397;-71
2024/04/09 07:46:26;;;;;;;7.40;1.05;;;;;;;12.66;100.00;100844.47;5666214;26;19998;-72
2024/04/09 07:48:59;;;;;;;4.75;1.13;;;;;;;12.75;100.00;100841.69;5664770;26;20427;-74
2024/04/09 07:51:31;;;;;;;6.43;1.10;;;;;;;12.74;100.00;100850.78;5663020;26;19991;-74
2024/04/09 07:54:02;;;;;;;5.68;1.25;;;;;;;12.93;100.00;100844.91;5664049;26;19994;-74
2024/04/09 07:56:33;;;;;;;9.57;1.70;;;;;;;13.00;100.00;100847.72;5669404;26;20070;-73
2024/04/09 07:59:04;;;;;;;7.00;1.58;;;;;;;13.05;100.00;100854.25;5665435;26;20337;-73
2024/04/09 08:01:34;;;;;;;6.68;1.00;;;;;;;13.03;100.00;100852.75;5667251;26;20014;-74
2024/04/09 08:04:05;;;;;;;8.30;1.38;;;;;;;13.07;100.00;100860.28;5663339;26;19998;-73
2024/04/09 08:06:37;;;;;;;8.27;1.33;;;;;;;12.81;100.00;100866.06;5662985;26;20476;-73
2024/04/09 08:09:11;;;;;;;7.38;1.00;;;;;;;12.90;100.00;100869.50;5671780;26;20012;-74
2024/04/09 08:11:42;;;;;;;6.40;1.20;;;;;;;12.81;100.00;100863.38;5661753;26;20011;-74
2024/04/09 08:14:13;;;;;;;6.18;1.00;;;;;;;12.91;100.00;100866.66;5671774;26;20464;-74
2024/04/09 08:16:43;;;;;;;3.17;0.80;;;;;;;13.39;100.00;100888.78;5670026;26;20126;-72
2024/04/09 08:19:14;;;;;;;5.68;1.13;;;;;;;13.27;100.00;100873.28;5668400;26;19994;-71
2024/04/09 08:21:44;;;;;;;2.58;0.95;;;;;;;13.79;100.00;100878.59;5667556;26;20078;-72
2024/04/09 08:24:14;;;;;;;7.65;0.95;;;;;;;14.15;100.00;100897.53;5671699;26;20010;-71
2024/04/09 08:26:45;;;;;;;7.72;1.02;;;;;;;14.53;100.00;100889.31;5670277;26;20010;-72
2024/04/09 08:29:16;;;;;;;7.70;0.90;;;;;;;14.71;100.00;100899.69;5667737;26;20013;-73
2024/04/09 08:31:47;;;;;;;3.17;0.85;;;;;;;14.44;100.00;100904.72;5667146;26;20387;-74
2024/04/09 08:34:18;;;;;;;4.57;1.00;;;;;;;14.43;100.00;100896.84;5665042;26;20005;-73
2024/04/09 08:36:49;;;;;;;6.00;1.20;;;;;;;14.59;100.00;100902.03;5669570;26;20075;-73
2024/04/09 08:39:19;;;;;;;3.42;0.85;;;;;;;14.41;100.00;100899.72;5657896;26;19998;-73
2024/04/09 08:41:50;;;;;;;7.85;1.38;;;;;;;14.01;100.00;100890.31;5671130;26;20219;-74
2024/04/09 08:44:24;;;;;;;7.50;0.80;;;;;;;14.19;100.00;100906.09;5670054;26;20072;-74
2024/04/09 08:46:56;;;;;;;6.30;1.05;;;;;;;14.00;100.00;100905.63;5661503;26;20011;-74
2024/04/09 08:49:27;;;;;;;3.50;0.82;;;;;;;14.11;100.00;100903.50;5668073;26;19998;-73
2024/04/09 08:51:58;;;;;;;3.90;1.05;;;;;;;14.05;100.00;100905.06;5661951;26;20340;-73
2024/04/09 08:54:28;;;;;;;9.32;1.10;;;;;;;13.79;100.00;100905.56;5666206;26;20013;-74
2024/04/09 08:56:59;;;;;;;5.65;1.10;;;;;;;14.08;100.00;100898.47;5663356;26;20002;-73
2024/04/09 08:59:30;;;;;;;5.13;0.77;;;;;;;14.19;100.00;100909.63;5657364;26;19994;-74
2024/04/09 09:02:03;;;;;;;6.78;0.95;;;;;;;14.02;100.00;100913.56;5665937;26;19998;-74
2024/04/09 09:04:36;;;;;;;5.10;1.35;;;;;;;13.96;100.00;100928.63;5662409;26;19998;-74
2024/04/09 09:07:14;;;;;;;6.32;1.20;;;;;;;14.10;100.00;100928.78;5672106;26;20024;-73
2024/04/09 09:09:46;;;;;;;6.25;0.95;;;;;;;13.64;100.00;100937.06;5668260;26;19999;-74
2024/04/09 09:12:16;;;;;;;5.38;0.98;;;;;;;13.77;100.00;100949.91;5664812;26;20013;-74
2024/04/09 09:14:52;;;;;;;7.13;1.02;;;;;;;13.52;100.00;100939.38;5666425;26;20000;-73
2024/04/09 09:17:22;;;;;;;8.70;1.30;;;;;;;13.75;100.00;100947.38;5662954;26;20344;-74
2024/04/09 09:19:57;;;;;;;6.07;0.80;;;;;;;13.83;100.00;100935.69;5667185;26;20002;-73
2024/04/09 09:22:29;;;;;;;8.65;1.35;;;;;;;13.68;100.00;100955.38;5671341;26;20017;-73
2024/04/09 09:25:00;;;;;;;4.05;0.88;;;;;;;13.84;100.00;100927.41;5661817;26;20437;-73
2024/04/09 09:27:30;;;;;;;5.57;1.20;;;;;;;13.80;100.00;100915.31;5666039;26;20011;-72
2024/04/09 09:30:01;;;;;;;4.78;1.20;;;;;;;13.83;100.00;100906.88;5661348;26;20002;-73
2024/04/09 09:32:31;;;;;;;3.95;0.85;;;;;;;13.62;100.00;100931.03;5665084;26;20005;-73
2024/04/09 09:35:04;;;;;;;7.65;1.00;;;;;;;13.98;100.00;100933.84;5671783;26;20002;-73
2024/04/09 09:37:35;;;;;;;4.85;0.80;;;;;;;14.08;100.00;100907.41;5660953;26;20002;-73
2024/04/09 09:40:09;;;;;;;10.10;1.10;;;;;;;13.91;100.00;100924.81;5669672;26;20017;-73
2024/04/09 09:42:40;;;;;;;5.70;0.98;;;;;;;14.27;100.00;100921.34;5656164;26;20015;-74
2024/04/09 09:45:13;;;;;;;9.07;0.77;;;;;;;14.55;100.00;100922.31;5671009;26;19995;-73
2024/04/09 09:47:44;;;;;;;6.03;1.02;;;;;;;14.63;100.00;100938.41;5670134;26;20009;-73
2024/04/09 09:50:16;;;;;;;8.23;1.00;;;;;;;14.88;100.00;100928.09;5662640;26;20003;-73
2024/04/09 09:52:48;;;;;;;3.85;0.77;;;;;;;14.70;100.00;100936.63;5667862;26;19998;-73
2024/04/09 09:55:19;;;;;;;7.25;1.00;;;;;;;14.58;100.00;100935.47;5666829;26;20006;-73
2024/04/09 09:57:53;;;;;;;8.40;0.90;;;;;;;14.39;100.00;100936.03;5655687;26;20356;-73
2024/04/09 10:00:26;;;;;;;2.72;0.73;;;;;;;14.39;100.00;100930.63;5660087;26;20042;-73
2024/04/09 10:02:58;;;;;;;7.93;1.10;;;;;;;14.35;100.00;100932.84;5660814;26;20843;-73
2024/04/09 10:05:31;;;;;;;7.40;1.58;;;;;;;14.54;100.00;100942.25;5662824;26;20020;-73
2024/04/09 10:08:02;;;;;;;6.00;1.13;;;;;;;14.96;100.00;100930.69;5660141;26;20002;-73
2024/04/09 10:10:48;;;;;;;7.65;1.13;;;;;;;15.16;100.00;100941.69;5671353;26;20078;-73
2024/04/09 10:13:20;;;;;;;6.15;0.93;;;;;;;15.40;100.00;100962.03;5659041;26;19999;-73
2024/04/09 10:15:55;;;;;;;4.38;0.82;;;;;;;14.92;100.00;100958.28;5666015;26;20002;-73
2024/04/09 10:18:30;;;;;;;5.45;0.90;;;;;;;14.50;100.00;100962.56;5669993;26;20009;-73
2024/04/09 10:21:03;;;;;;;2.92;0.75;;;;;;;14.87;100.00;100958.00;5662734;26;20016;-74
2024/04/09 10:23:36;;;;;;;1.50;0.82;;;;;;;14.51;100.00;100942.66;5668485;26;20104;-73
2024/04/09 10:26:09;;;;;;;2.72;0.57;;;;;;;14.40;100.00;100948.47;5669483;26;20749;-74
2024/04/09 10:28:40;;;;;;;7.65;1.98;;;;;;;14.37;100.00;100967.78;5665733;26;20046;-73
2024/04/09 10:31:13;;;;;;;4.45;0.80;;;;;;;14.39;100.00;100965.72;5670357;26;20009;-73
2024/04/09 10:33:43;;;;;;;4.63;0.80;;;;;;;14.48;100.00;100970.00;5663422;26;19998;-73
2024/04/09 10:36:15;;;;;;;6.40;1.05;;;;;;;14.32;100.00;100981.00;5670169;26;20516;-73
2024/04/09 10:38:46;;;;;;;6.55;0.95;;;;;;;14.18;100.00;100997.00;5660395;26;20017;-74
2024/04/09 10:41:17;;;;;;;7.55;0.98;;;;;;;14.06;100.00;100986.88;5653848;26;20006;-75
2024/04/09 10:43:49;;;;;;;3.72;1.05;;;;;;;14.39;100.00;100984.59;5662903;26;20012;-74
2024/04/09 10:46:20;;;;;;;4.68;1.23;;;;;;;14.48;100.00;100986.22;5675651;26;20480;-74
2024/04/09 10:48:51;;;;;;;8.60;1.33;;;;;;;14.52;100.00;100994.78;5669623;26;20003;-74
2024/04/09 10:51:22;;;;;;;3.92;0.88;;;;;;;14.12;100.00;100992.34;5665102;26;20002;-73
2024/04/09 10:54:01;;;;;;;5.60;0.90;;;;;;;13.99;100.00;100998.38;5668647;26;19999;-74
2024/04/09 10:56:35;;;;;;;7.60;0.80;;;;;;;14.31;100.00;101007.16;5659473;26;20658;-74
2024/04/09 10:59:15;;;;;;;4.70;0.98;;;;;;;14.46;100.00;101002.56;5648692;26;20329;-73
2024/04/09 11:01:47;;;;;;;11.05;1.17;;;;;;;14.50;100.00;100986.84;5665960;26;19999;-72
2024/04/09 11:04:18;;;;;;;8.65;1.02;;;;;;;14.65;100.00;100990.34;5663473;26;19994;-73
2024/04/09 11:06:49;;;;;;;5.88;0.93;;;;;;;14.59;100.00;100996.53;5662603;26;20050;-72
2024/04/09 11:09:20;;;;;;;7.85;1.42;;;;;;;14.33;100.00;100999.69;5672402;26;20078;-72
2024/04/09 11:11:52;;;;;;;9.55;0.82;;;;;;;14.29;100.00;101036.16;5657569;26;20071;-73
2024/04/09 11:14:23;;;;;;;6.03;0.70;;;;;;;14.41;100.00;101039.25;5673086;26;20008;-72
2024/04/09 11:16:56;;;;;;;5.47;1.20;;;;;;;14.40;100.00;101029.47;5663197;26;20022;-72
2024/04/09 11:19:28;;;;;;;7.57;1.23;;;;;;;14.34;100.00;101028.34;5661749;26;20013;-72
2024/04/09 11:21:58;;;;;;;6.30;1.30;;;;;;;14.04;100.00;101030.19;5657578;26;19998;-71
2024/04/09 11:24:29;;;;;;;7.03;0.82;;;;;;;14.11;100.00;101051.91;5663152;26;20009;-71
2024/04/09 11:27:01;;;;;;;5.78;1.10;;;;;;;14.16;100.00;101049.47;5668969;26;19994;-71
2024/04/09 11:29:33;;;;;;;5.13;0.98;;;;;;;14.09;100.00;101041.25;5667303;26;19998;-71
2024/04/09 11:32:04;;;;;;;5.03;0.95;;;;;;;14.32;100.00;101035.81;5666099;26;20010;-71
2024/04/09 11:34:35;;;;;;;9.18;1.10;;;;;;;14.39;100.00;101041.28;5671664;26;19994;-72